Paw Paw, Illinois
Current Conditions -  °F | °C
As of 7:55 AM on Friday 31 Oct 2014 (Local Time) from KRPJ Reporting Station
Overcast Overcast  
Wind Chill: 22°   Ceiling: 2000
Heat Index: 33°   Visibility: 10mi
Dew Point: 29°   Wind: 18mph
Humidity: 86%   Direction: 340°NNW
Pressure: 30.19"   Gusts: 25mph
Location:  41.69°N, 88.98°W
Report Text: KRPJ 311255Z AUTO 34016G22KT 10SM OVC020 01/M01 A3019 RMK AO2 T00061015
Loading
Personal Weather Stations






























Interactive Weather Map New forecast layout! Learn more

10-Day Weather Forecast

Advertisements
Track Severe Weather on mobile